createdAt,value
2023-04-17T00:02:45.281Z,90.30
2023-04-17T00:08:13.411Z,90.00
2023-04-17T00:13:41.409Z,90.40
2023-04-17T00:19:09.448Z,90.40
2023-04-17T00:24:37.392Z,90.40
2023-04-17T00:30:06.680Z,90.40
2023-04-17T00:41:02.639Z,90.20
2023-04-17T00:46:31.627Z,90.50
2023-04-17T00:51:59.811Z,90.50
2023-04-17T00:57:27.860Z,90.40
2023-04-17T01:02:58.379Z,90.40
2023-04-17T01:08:26.829Z,90.40
2023-04-17T01:13:54.901Z,90.40
2023-04-17T01:19:23.654Z,90.80
2023-04-17T01:24:51.620Z,90.50
2023-04-17T01:30:20.039Z,90.60
2023-04-17T01:36:10.695Z,90.70
2023-04-17T01:41:38.792Z,90.70
2023-04-17T01:47:06.672Z,90.40
2023-04-17T01:52:34.959Z,90.70
2023-04-17T01:58:02.757Z,90.70
2023-04-17T02:03:34.834Z,90.70
2023-04-17T02:09:04.002Z,90.70
2023-04-17T02:14:31.956Z,90.90
2023-04-17T02:19:59.743Z,90.80
2023-04-17T02:25:28.951Z,90.80
2023-04-17T02:30:56.892Z,90.80
2023-04-17T02:36:24.849Z,90.90
2023-04-17T02:41:53.102Z,90.70
2023-04-17T02:47:21.098Z,91.00
2023-04-17T02:52:49.061Z,91.10
2023-04-17T02:58:16.954Z,91.10
2023-04-17T03:03:45.262Z,91.10
2023-04-17T03:09:18.226Z,91.10
2023-04-17T03:14:46.341Z,91.20
2023-04-17T03:20:16.000Z,91.20
2023-04-17T03:25:44.008Z,91.20
2023-04-17T03:31:13.251Z,91.20
2023-04-17T03:36:42.158Z,91.30
2023-04-17T03:42:14.715Z,91.30
2023-04-17T03:47:42.841Z,91.40
2023-04-17T03:53:10.992Z,91.40
2023-04-17T03:58:39.956Z,91.40
2023-04-17T04:04:10.881Z,91.40
2023-04-17T04:09:39.073Z,91.40
2023-04-17T04:15:08.949Z,91.50
2023-04-17T04:20:37.634Z,91.60
2023-04-17T04:26:16.978Z,91.30
2023-04-17T04:31:51.150Z,91.60
2023-04-17T04:37:30.253Z,91.30
2023-04-17T04:43:03.037Z,91.70
2023-04-17T04:48:37.350Z,91.80
2023-04-17T04:54:06.090Z,91.70
2023-04-17T04:59:39.979Z,91.70
2023-04-17T05:05:28.088Z,91.70
2023-04-17T05:10:57.053Z,91.70
2023-04-17T05:16:25.595Z,91.60
2023-04-17T05:21:53.812Z,91.70
2023-04-17T05:27:23.195Z,91.70
2023-04-17T05:32:51.961Z,91.70
2023-04-17T05:38:49.281Z,91.70
2023-04-17T05:44:19.652Z,91.60
2023-04-17T05:49:51.220Z,91.80
2023-04-17T05:55:20.386Z,91.50
2023-04-17T06:00:52.535Z,91.80
2023-04-17T06:06:21.002Z,91.80
2023-04-17T06:11:48.846Z,91.80
2023-04-17T06:17:17.233Z,91.40
2023-04-17T06:22:46.932Z,91.70
2023-04-17T06:28:14.758Z,91.70
2023-04-17T06:33:43.717Z,91.60
2023-04-17T06:39:11.786Z,91.60
2023-04-17T06:44:39.899Z,91.60
2023-04-17T06:50:13.759Z,91.60
2023-04-17T06:55:41.654Z,91.60
2023-04-17T07:01:12.606Z,91.70
2023-04-17T07:06:40.953Z,91.30
2023-04-17T07:12:08.966Z,91.40
2023-04-17T07:17:37.024Z,91.70
2023-04-17T07:23:04.864Z,91.80
2023-04-17T07:28:32.605Z,91.80
2023-04-17T07:34:00.831Z,91.80
2023-04-17T07:39:31.633Z,91.80
2023-04-17T07:44:59.516Z,92.00
2023-04-17T07:50:27.502Z,91.80
2023-04-17T07:55:58.044Z,91.90
2023-04-17T08:01:26.507Z,91.90
2023-04-17T08:06:54.458Z,91.90
2023-04-17T08:12:22.239Z,92.10
2023-04-17T08:17:50.430Z,92.00
2023-04-17T08:23:18.298Z,92.00
2023-04-17T08:28:47.117Z,92.00
2023-04-17T08:34:16.219Z,92.10
2023-04-17T08:39:43.973Z,92.10
2023-04-17T08:45:13.780Z,92.10
2023-04-17T08:50:45.963Z,92.10
2023-04-17T08:56:13.815Z,92.00
2023-04-17T09:02:07.394Z,92.00
2023-04-17T09:07:35.672Z,92.00
2023-04-17T09:13:03.739Z,92.00
2023-04-17T09:18:33.111Z,91.80
2023-04-17T09:24:01.130Z,91.60
2023-04-17T09:29:28.926Z,91.90
2023-04-17T09:35:00.284Z,91.70
2023-04-17T09:40:41.337Z,91.40
2023-04-17T09:46:09.256Z,91.70
2023-04-17T09:51:37.880Z,91.80
2023-04-17T09:57:10.970Z,91.80
2023-04-17T10:02:40.380Z,91.80
2023-04-17T10:08:08.361Z,91.70
2023-04-17T10:13:40.632Z,91.60
2023-04-17T10:19:32.197Z,91.40
2023-04-17T10:25:20.678Z,90.80
2023-04-17T10:30:56.352Z,91.10
2023-04-17T10:36:39.743Z,90.60
2023-04-17T10:47:36.208Z,90.40
2023-04-17T10:53:04.972Z,90.60
2023-04-17T10:58:32.978Z,90.60
2023-04-17T11:09:29.814Z,90.30
2023-04-17T11:15:04.449Z,90.40
2023-04-17T11:20:37.932Z,90.20
2023-04-17T11:26:13.988Z,90.00
2023-04-17T11:31:48.793Z,90.00
2023-04-17T11:37:19.978Z,89.60
2023-04-17T11:42:49.595Z,89.90
2023-04-17T11:48:24.675Z,89.10
2023-04-17T11:53:52.550Z,89.20
2023-04-17T11:59:33.964Z,88.90
2023-04-17T12:05:20.460Z,88.10
2023-04-17T12:10:48.463Z,88.10
2023-04-17T12:16:16.260Z,87.90
2023-04-17T12:21:44.148Z,87.70
2023-04-17T12:27:11.988Z,87.10
2023-04-17T12:32:39.951Z,87.70
2023-04-17T12:38:07.799Z,86.70
2023-04-17T12:43:35.837Z,86.30
2023-04-17T12:49:03.645Z,85.60
2023-04-17T12:54:33.253Z,85.10
2023-04-17T13:00:01.641Z,85.00
2023-04-17T13:05:30.494Z,85.10
2023-04-17T13:10:59.909Z,84.60
2023-04-17T13:16:27.770Z,84.50
2023-04-17T13:21:55.591Z,84.00
2023-04-17T13:27:23.453Z,83.30
2023-04-17T13:32:51.462Z,83.20
2023-04-17T13:38:19.855Z,82.50
2023-04-17T13:43:47.776Z,82.30
2023-04-17T13:49:15.757Z,81.50
2023-04-17T13:54:43.533Z,81.50
2023-04-17T14:00:12.325Z,81.30
2023-04-17T14:05:40.060Z,80.90
2023-04-17T14:11:07.930Z,80.10
2023-04-17T14:16:36.270Z,79.50
2023-04-17T14:22:04.151Z,79.30
2023-04-17T14:27:31.969Z,78.90
2023-04-17T14:33:00.850Z,76.60
2023-04-17T14:38:28.788Z,77.70
2023-04-17T14:43:58.089Z,78.60
2023-04-17T14:49:25.959Z,78.80
2023-04-17T14:54:53.736Z,78.20
2023-04-17T15:00:21.921Z,78.30
2023-04-17T15:05:49.974Z,78.80
2023-04-17T15:11:17.866Z,78.60
2023-04-17T15:16:45.760Z,78.50
2023-04-17T15:22:13.686Z,78.40
2023-04-17T15:27:41.454Z,78.50
2023-04-17T15:33:10.396Z,78.70
2023-04-17T15:38:38.406Z,79.00
2023-04-17T15:44:06.533Z,79.20
2023-04-17T15:49:34.392Z,79.50
2023-04-17T15:55:02.182Z,79.70
2023-04-17T16:00:30.051Z,80.00
2023-04-17T16:05:57.939Z,80.20
2023-04-17T16:11:25.950Z,80.20
2023-04-17T16:16:53.848Z,80.50
2023-04-17T16:22:21.819Z,80.70
2023-04-17T16:27:49.965Z,81.70
2023-04-17T16:33:19.216Z,81.50
2023-04-17T16:38:50.496Z,81.90
2023-04-17T16:49:50.135Z,82.40
2023-04-17T16:55:19.090Z,83.20
2023-04-17T17:01:13.291Z,82.80
2023-04-17T17:06:41.848Z,83.10
2023-04-17T17:12:14.607Z,82.60
2023-04-17T17:18:08.237Z,84.20
2023-04-17T17:23:40.770Z,83.40
2023-04-17T17:29:13.565Z,83.20
2023-04-17T17:34:48.197Z,83.70
2023-04-17T17:40:16.369Z,85.50
2023-04-17T17:51:14.884Z,84.00
2023-04-17T17:56:44.861Z,84.70
2023-04-17T18:02:13.101Z,84.00
2023-04-17T18:07:44.607Z,84.30
2023-04-17T18:13:13.548Z,88.10
2023-04-17T18:18:41.549Z,86.20
2023-04-17T18:24:14.507Z,85.10
2023-04-17T18:29:49.088Z,85.40
2023-04-17T18:35:22.294Z,85.70
2023-04-17T18:40:57.492Z,85.40
2023-04-17T18:46:54.087Z,86.20
2023-04-17T18:52:21.970Z,85.00
2023-04-17T18:57:50.992Z,86.10
2023-04-17T19:03:18.870Z,85.90
2023-04-17T19:08:46.688Z,86.00
2023-04-17T19:14:14.741Z,86.30
2023-04-17T19:19:43.191Z,86.30
2023-04-17T19:25:13.131Z,86.70
2023-04-17T19:30:41.034Z,86.60
2023-04-17T19:36:09.042Z,86.50
2023-04-17T19:41:37.794Z,86.70
2023-04-17T19:47:06.022Z,86.80
2023-04-17T19:52:34.083Z,86.80
2023-04-17T19:58:02.384Z,86.90
2023-04-17T20:03:32.646Z,87.00
2023-04-17T20:09:03.333Z,87.10
2023-04-17T20:14:31.898Z,87.20
2023-04-17T20:19:59.909Z,87.40
2023-04-17T20:25:28.239Z,87.60
2023-04-17T20:30:56.490Z,87.50
2023-04-17T20:36:24.787Z,87.60
2023-04-17T20:41:52.896Z,87.70
2023-04-17T20:47:21.186Z,87.70
2023-04-17T20:52:49.145Z,87.90
2023-04-17T20:58:17.294Z,88.00
2023-04-17T21:03:45.462Z,88.10
2023-04-17T21:09:16.536Z,88.20
2023-04-17T21:14:44.806Z,88.30
2023-04-17T21:20:13.919Z,88.40
2023-04-17T21:25:42.268Z,88.60
2023-04-17T21:31:14.949Z,88.70
2023-04-17T21:36:43.242Z,88.20
2023-04-17T21:42:11.514Z,89.00
2023-04-17T21:47:39.575Z,89.10
2023-04-17T21:53:09.325Z,89.40
2023-04-17T21:58:37.252Z,89.30
2023-04-17T22:04:05.332Z,89.50
2023-04-17T22:09:33.423Z,89.00
2023-04-17T22:15:02.317Z,89.80
2023-04-17T22:20:30.564Z,89.40
2023-04-17T22:26:02.156Z,90.00
2023-04-17T22:31:30.622Z,90.10
2023-04-17T22:36:58.865Z,90.20
2023-04-17T22:42:27.056Z,90.20
2023-04-17T22:47:55.237Z,90.30
2023-04-17T22:53:23.644Z,90.30
2023-04-17T22:58:51.979Z,90.40
2023-04-17T23:04:22.957Z,90.40
2023-04-17T23:09:51.051Z,90.40
2023-04-17T23:15:18.987Z,90.40
2023-04-17T23:20:47.515Z,90.50
2023-04-17T23:26:16.798Z,90.50
2023-04-17T23:31:45.748Z,90.60
2023-04-17T23:37:13.702Z,90.60
2023-04-17T23:42:41.732Z,90.60
2023-04-17T23:48:09.955Z,90.70
2023-04-17T23:53:37.924Z,90.70
2023-04-17T23:59:05.971Z,90.70
